Time;durP1;ratioP1;P1;durP2;ratioP2;P2;SDS_P1;SDS_P2;PMS_P1;PMS_P2;Temp;Humidity;BMP_temperature;BMP_pressure;BME280_temperature;BME280_humidity;BME280_pressure;Samples;Min_cycle;Max_cycle;Signal;HPM_P1;HPM_P2
2022/01/02 00:00:00;;;;;;;9.68;6.03;;;11.50;99.90;;;;;;5071364;28;20103;-86
2022/01/02 00:02:29;;;;;;;9.17;6.50;;;11.40;99.90;;;;;;5112098;27;20438;-87
2022/01/02 00:05:19;;;;;;;10.50;6.17;;;11.40;99.90;;;;;;5097460;28;20049;-87
2022/01/02 00:08:01;;;;;;;9.37;6.23;;;11.40;99.90;;;;;;5093597;28;20047;-86
2022/01/02 00:10:31;;;;;;;11.23;6.23;;;11.40;99.90;;;;;;5112339;27;20057;-86
2022/01/02 00:12:59;;;;;;;15.17;6.93;;;11.40;99.90;;;;;;5099967;27;20052;-85
2022/01/02 00:15:26;;;;;;;11.20;6.33;;;11.40;99.90;;;;;;5080759;27;20047;-87
2022/01/02 00:17:54;;;;;;;13.87;6.77;;;11.40;99.90;;;;;;5088281;27;20241;-87
2022/01/02 00:20:32;;;;;;;10.80;6.80;;;11.40;99.90;;;;;;5093642;28;20043;-87
2022/01/02 00:23:05;;;;;;;10.60;6.50;;;11.30;99.90;;;;;;5078657;27;20043;-87
2022/01/02 00:25:36;;;;;;;10.67;6.57;;;11.30;99.90;;;;;;5109978;27;20039;-87
2022/01/02 00:28:02;;;;;;;11.33;6.83;;;11.40;99.90;;;;;;5074307;27;20066;-88
2022/01/02 00:30:29;;;;;;;10.03;6.50;;;11.30;99.90;;;;;;5098480;28;20290;-87
2022/01/02 00:32:56;;;;;;;11.73;6.50;;;11.30;99.90;;;;;;5077160;27;20503;-87
2022/01/02 00:35:23;;;;;;;13.27;7.23;;;11.30;99.90;;;;;;5079710;28;20036;-87
2022/01/02 00:37:48;;;;;;;13.20;7.30;;;11.30;99.90;;;;;;5094495;27;20077;-86
2022/01/02 00:40:15;;;;;;;12.70;7.13;;;11.30;99.90;;;;;;5064683;28;20063;-87
2022/01/02 00:42:42;;;;;;;12.60;7.70;;;11.30;99.90;;;;;;5085364;28;20047;-88
2022/01/02 00:45:23;;;;;;;15.23;7.53;;;11.20;99.90;;;;;;5084934;28;20048;-87
2022/01/02 00:48:04;;;;;;;14.00;7.13;;;11.20;99.90;;;;;;5090255;27;20051;-87
2022/01/02 00:50:37;;;;;;;13.43;7.10;;;11.20;99.90;;;;;;5087429;27;20073;-87
2022/01/02 00:53:05;;;;;;;10.53;7.10;;;11.20;99.90;;;;;;5090085;27;20050;-86
2022/01/02 00:55:34;;;;;;;11.97;7.23;;;11.20;99.90;;;;;;5098330;27;20152;-87
2022/01/02 00:58:05;;;;;;;12.63;7.10;;;11.20;99.90;;;;;;5106949;28;20423;-87
2022/01/02 01:00:32;;;;;;;14.40;7.97;;;11.10;99.90;;;;;;5097921;27;20160;-87
2022/01/02 01:03:05;;;;;;;13.53;7.37;;;11.20;99.90;;;;;;5091656;27;20100;-86
2022/01/02 01:05:32;;;;;;;11.13;7.67;;;11.10;99.90;;;;;;5086263;27;20081;-86
2022/01/02 01:08:03;;;;;;;12.87;7.47;;;11.10;99.90;;;;;;5094712;28;20046;-87
2022/01/02 01:10:35;;;;;;;15.40;7.73;;;11.10;99.90;;;;;;5082896;28;20028;-87
2022/01/02 01:13:03;;;;;;;14.02;7.57;;;11.10;99.90;;;;;;5086453;27;20091;-86
2022/01/02 01:15:30;;;;;;;14.63;7.73;;;11.20;99.90;;;;;;5117400;27;20450;-87
2022/01/02 01:17:58;;;;;;;11.80;7.23;;;11.10;99.90;;;;;;5118694;27;20043;-85
2022/01/02 01:20:30;;;;;;;12.27;7.50;;;11.20;99.90;;;;;;5080285;28;20111;-85
2022/01/02 01:22:56;;;;;;;14.17;8.20;;;11.20;99.90;;;;;;5111917;28;20107;-86
2022/01/02 01:25:23;;;;;;;14.23;7.47;;;11.20;99.90;;;;;;5074878;27;20067;-87
2022/01/02 01:27:50;;;;;;;9.73;7.63;;;11.20;99.90;;;;;;5066332;27;20075;-86
2022/01/02 01:30:18;;;;;;;14.20;8.23;;;11.20;99.90;;;;;;5088895;27;20039;-85
2022/01/02 01:32:45;;;;;;;14.67;8.20;;;11.20;99.90;;;;;;5070427;27;20170;-86
2022/01/02 01:35:12;;;;;;;14.33;7.93;;;11.20;99.90;;;;;;5068102;28;20058;-87
2022/01/02 01:37:38;;;;;;;11.87;7.80;;;11.20;99.90;;;;;;5092859;28;20078;-85
2022/01/02 01:40:07;;;;;;;12.47;7.97;;;11.20;99.90;;;;;;5076741;28;20058;-87
2022/01/02 01:42:38;;;;;;;13.17;7.87;;;11.20;99.90;;;;;;5107675;28;20043;-87
2022/01/02 01:47:47;;;;;;;11.90;8.07;;;11.10;99.90;;;;;;5101401;28;20039;-87
2022/01/02 01:50:14;;;;;;;16.93;8.03;;;11.20;99.90;;;;;;5092839;28;20081;-86
2022/01/02 01:52:39;;;;;;;13.17;8.00;;;11.10;99.90;;;;;;5091236;28;20043;-87
2022/01/02 01:55:07;;;;;;;14.20;8.07;;;11.10;99.90;;;;;;5086572;28;20042;-88
2022/01/02 01:57:33;;;;;;;15.67;8.40;;;11.10;99.90;;;;;;5088959;28;20039;-86
2022/01/02 01:59:59;;;;;;;12.43;8.03;;;11.20;99.90;;;;;;5088049;28;20085;-87
2022/01/02 02:02:26;;;;;;;14.07;8.37;;;11.10;99.90;;;;;;5070957;28;20040;-87
2022/01/02 02:04:52;;;;;;;15.43;8.20;;;11.10;99.90;;;;;;5080716;28;20043;-88
2022/01/02 02:07:26;;;;;;;17.50;8.23;;;11.20;99.90;;;;;;5082663;28;20103;-90
2022/01/02 02:12:37;;;;;;;13.97;8.40;;;11.20;99.90;;;;;;5111848;28;20103;-90
2022/01/02 02:15:04;;;;;;;17.40;8.17;;;11.10;99.90;;;;;;5078636;28;20040;-91
2022/01/02 02:17:32;;;;;;;15.07;8.33;;;11.20;99.90;;;;;;5098816;28;20039;-90
2022/01/02 02:20:09;;;;;;;13.30;8.30;;;11.20;99.90;;;;;;5094627;28;20039;-91
2022/01/02 02:22:40;;;;;;;16.00;9.10;;;11.10;99.90;;;;;;5092484;28;20046;-91
2022/01/02 02:25:07;;;;;;;18.87;8.53;;;11.20;99.90;;;;;;5063698;28;20659;-91
2022/01/02 02:27:33;;;;;;;16.43;8.90;;;11.20;99.90;;;;;;5081049;28;20043;-90
2022/01/02 02:29:59;;;;;;;12.37;7.83;;;11.10;99.90;;;;;;5109578;28;20045;-90
2022/01/02 02:32:25;;;;;;;16.70;8.30;;;11.10;99.90;;;;;;5062004;28;20047;-92
2022/01/02 02:34:51;;;;;;;14.27;8.13;;;11.20;99.90;;;;;;5085968;27;20035;-90
2022/01/02 02:37:17;;;;;;;13.17;8.17;;;11.10;99.90;;;;;;5091829;27;20539;-91
2022/01/02 02:39:42;;;;;;;14.33;8.50;;;11.10;99.90;;;;;;5083614;28;20047;-87
2022/01/02 02:42:21;;;;;;;14.57;8.07;;;11.10;99.90;;;;;;5069610;27;20107;-87
2022/01/02 02:44:56;;;;;;;14.03;8.27;;;11.10;99.90;;;;;;5113804;27;20562;-88
2022/01/02 02:50:07;;;;;;;15.50;8.80;;;11.10;99.90;;;;;;5104322;27;20047;-89
2022/01/02 02:52:43;;;;;;;13.20;7.90;;;11.10;99.90;;;;;;5073349;28;20044;-87
2022/01/02 02:55:09;;;;;;;15.03;8.03;;;11.10;99.90;;;;;;5088700;27;20512;-87
2022/01/02 02:57:35;;;;;;;15.77;8.67;;;11.10;99.90;;;;;;5083154;28;20039;-87
2022/01/02 03:00:01;;;;;;;15.57;8.50;;;11.10;99.90;;;;;;5070331;28;20032;-87
2022/01/02 03:02:27;;;;;;;15.80;8.60;;;11.10;99.90;;;;;;5103617;27;20035;-87
2022/01/02 03:04:52;;;;;;;16.93;9.13;;;11.10;99.90;;;;;;5103687;27;20043;-88
2022/01/02 03:07:18;;;;;;;18.03;8.70;;;11.10;99.90;;;;;;5077089;28;20040;-88
2022/01/02 03:09:49;;;;;;;21.77;9.50;;;11.10;99.90;;;;;;5069365;27;20050;-88
2022/01/02 03:12:14;;;;;;;20.27;9.10;;;11.10;99.90;;;;;;5067792;28;20160;-87
2022/01/02 03:14:40;;;;;;;19.37;9.07;;;11.10;99.90;;;;;;5081978;27;20094;-89
2022/01/02 03:17:06;;;;;;;17.37;8.63;;;11.10;99.90;;;;;;5083869;28;20046;-88
2022/01/02 03:19:33;;;;;;;16.90;8.77;;;11.10;99.90;;;;;;5076100;27;20047;-88
2022/01/02 03:21:59;;;;;;;17.13;9.40;;;11.10;99.90;;;;;;5060785;27;20039;-87
2022/01/02 03:24:25;;;;;;;14.73;8.97;;;11.10;99.90;;;;;;5075749;28;20093;-87
2022/01/02 03:26:51;;;;;;;15.23;9.00;;;11.20;99.90;;;;;;5086376;27;20094;-87
2022/01/02 03:29:17;;;;;;;15.90;9.07;;;11.10;99.90;;;;;;5079383;28;20071;-87
2022/01/02 03:31:43;;;;;;;16.67;9.57;;;11.10;99.90;;;;;;5093072;27;20055;-87
2022/01/02 03:34:09;;;;;;;17.47;9.23;;;11.10;99.90;;;;;;5069040;27;20099;-87
2022/01/02 03:36:35;;;;;;;18.47;8.70;;;11.10;99.90;;;;;;5085264;27;20035;-87
2022/01/02 03:39:00;;;;;;;14.83;9.13;;;11.10;99.90;;;;;;5083835;27;20638;-88
2022/01/02 03:41:26;;;;;;;17.83;9.63;;;11.10;99.90;;;;;;5073617;27;20043;-87
2022/01/02 03:43:52;;;;;;;16.00;8.70;;;11.10;99.90;;;;;;5069379;27;20049;-89
2022/01/02 03:46:18;;;;;;;19.43;9.47;;;11.10;99.90;;;;;;5086614;27;20134;-87
2022/01/02 03:48:44;;;;;;;16.47;8.47;;;11.10;99.90;;;;;;5067522;28;20142;-88
2022/01/02 03:51:10;;;;;;;19.60;9.10;;;11.10;99.90;;;;;;5079445;27;20086;-88
2022/01/02 03:53:35;;;;;;;15.97;9.13;;;11.10;99.90;;;;;;5068314;27;20481;-88
2022/01/02 03:56:01;;;;;;;15.73;9.07;;;11.10;99.90;;;;;;5086108;27;20043;-87
2022/01/02 03:58:27;;;;;;;18.93;8.67;;;11.20;99.90;;;;;;5105067;27;20050;-87
2022/01/02 04:00:53;;;;;;;18.23;9.20;;;11.20;99.90;;;;;;5068935;27;20126;-87
2022/01/02 04:03:19;;;;;;;15.17;7.97;;;11.20;99.90;;;;;;5106550;27;20047;-87
2022/01/02 04:05:44;;;;;;;15.30;8.13;;;11.10;99.90;;;;;;5113257;27;20083;-87
2022/01/02 04:08:11;;;;;;;16.40;8.60;;;11.20;99.90;;;;;;5079753;28;20161;-86
2022/01/02 04:10:37;;;;;;;19.13;8.33;;;11.10;99.90;;;;;;5065071;28;20063;-86
2022/01/02 04:13:02;;;;;;;20.23;7.77;;;11.10;99.90;;;;;;5095568;28;20035;-86
2022/01/02 04:15:28;;;;;;;18.00;8.10;;;11.10;99.90;;;;;;5079840;27;20035;-87
2022/01/02 04:17:54;;;;;;;16.63;7.60;;;11.10;99.90;;;;;;5074670;27;20039;-87
2022/01/02 04:20:20;;;;;;;17.57;8.03;;;11.20;99.90;;;;;;5083533;28;20047;-87
2022/01/02 04:22:46;;;;;;;17.90;7.53;;;11.20;99.90;;;;;;5084735;28;20061;-87
2022/01/02 04:25:13;;;;;;;18.53;8.33;;;11.20;99.90;;;;;;5081640;27;20039;-87
2022/01/02 04:27:39;;;;;;;14.63;7.37;;;11.20;99.90;;;;;;5054472;27;20051;-87
2022/01/02 04:30:08;;;;;;;20.57;8.37;;;11.20;99.90;;;;;;5102029;27;20111;-88
2022/01/02 04:32:33;;;;;;;14.90;7.80;;;11.20;99.90;;;;;;5091031;27;20046;-86
2022/01/02 04:34:59;;;;;;;16.63;7.43;;;11.20;99.90;;;;;;5076015;27;20107;-87
2022/01/02 04:37:25;;;;;;;16.53;8.07;;;11.20;99.90;;;;;;5056968;27;20099;-86
2022/01/02 04:39:51;;;;;;;20.30;7.70;;;11.20;99.90;;;;;;5084343;27;20097;-87
2022/01/02 04:42:16;;;;;;;14.17;8.17;;;11.20;99.90;;;;;;5055043;27;20055;-87
2022/01/02 04:44:42;;;;;;;15.93;8.03;;;11.20;99.90;;;;;;5084254;27;20429;-87
2022/01/02 04:47:08;;;;;;;14.83;7.90;;;11.20;99.90;;;;;;5082083;28;20046;-85
2022/01/02 04:49:34;;;;;;;17.37;8.43;;;11.20;99.90;;;;;;5084186;27;20157;-88
2022/01/02 04:51:59;;;;;;;19.53;8.03;;;11.20;99.90;;;;;;5083102;28;20035;-88
2022/01/02 04:54:25;;;;;;;20.27;8.37;;;11.20;99.90;;;;;;5081421;27;20112;-88
2022/01/02 04:56:51;;;;;;;18.67;8.20;;;11.20;99.90;;;;;;5072712;27;20051;-86
2022/01/02 04:59:18;;;;;;;15.57;7.87;;;11.20;99.90;;;;;;5073279;27;20050;-86
2022/01/02 05:01:44;;;;;;;18.77;7.93;;;11.20;99.90;;;;;;5091525;28;20127;-87
2022/01/02 05:04:11;;;;;;;16.10;8.40;;;11.20;99.90;;;;;;5075643;27;20563;-86
2022/01/02 05:06:37;;;;;;;23.00;7.57;;;11.20;99.90;;;;;;5083706;27;20047;-87
2022/01/02 05:09:04;;;;;;;15.10;7.97;;;11.30;99.90;;;;;;5094093;28;20077;-87
2022/01/02 05:11:30;;;;;;;13.97;7.17;;;11.30;99.90;;;;;;5106811;28;20073;-87
2022/01/02 05:13:56;;;;;;;16.47;7.57;;;11.30;99.90;;;;;;5078963;27;20100;-87
2022/01/02 05:16:22;;;;;;;18.80;7.67;;;11.30;99.90;;;;;;5110719;27;20516;-88
2022/01/02 05:18:48;;;;;;;17.70;7.20;;;11.30;99.90;;;;;;5069469;27;20039;-87
2022/01/02 05:21:14;;;;;;;14.43;6.90;;;11.30;99.90;;;;;;5098613;28;20051;-87
2022/01/02 05:23:41;;;;;;;16.10;7.03;;;11.30;99.90;;;;;;5092934;28;20039;-87
2022/01/02 05:26:06;;;;;;;17.97;8.03;;;11.30;99.90;;;;;;5080383;27;20035;-87
2022/01/02 05:28:32;;;;;;;18.47;7.87;;;11.40;99.90;;;;;;5096145;28;20547;-86
2022/01/02 05:30:58;;;;;;;20.43;7.20;;;11.40;99.90;;;;;;5064541;27;20090;-88
2022/01/02 05:33:23;;;;;;;16.57;6.63;;;11.40;99.90;;;;;;5062996;28;20440;-87
2022/01/02 05:35:49;;;;;;;16.10;7.13;;;11.40;99.90;;;;;;5081314;28;20054;-87
2022/01/02 05:38:16;;;;;;;16.93;6.60;;;11.40;99.90;;;;;;5091867;28;20500;-88
2022/01/02 05:40:42;;;;;;;16.00;6.70;;;11.50;99.90;;;;;;5071014;28;20105;-87
2022/01/02 05:43:08;;;;;;;17.73;6.87;;;11.40;99.90;;;;;;5066221;28;20080;-88
2022/01/02 05:45:34;;;;;;;14.93;6.83;;;11.40;99.90;;;;;;5082403;28;20038;-86
2022/01/02 05:48:02;;;;;;;16.57;6.90;;;11.40;99.90;;;;;;5070004;28;20500;-89
2022/01/02 05:50:28;;;;;;;20.10;6.80;;;11.50;99.90;;;;;;5100790;28;20047;-87
2022/01/02 05:52:54;;;;;;;19.33;6.60;;;11.40;99.90;;;;;;5072409;28;20176;-87
2022/01/02 05:55:20;;;;;;;18.03;7.27;;;11.40;99.90;;;;;;5094762;28;20043;-87
2022/01/02 05:57:46;;;;;;;11.40;5.97;;;11.50;99.90;;;;;;5082219;28;20043;-87
2022/01/02 06:00:12;;;;;;;14.50;6.50;;;11.50;99.90;;;;;;5106024;28;20039;-87
2022/01/02 06:02:38;;;;;;;14.20;6.50;;;11.50;99.90;;;;;;5079376;28;20078;-87
2022/01/02 06:05:06;;;;;;;16.47;6.40;;;11.50;99.90;;;;;;5088340;28;20035;-88
2022/01/02 06:07:33;;;;;;;17.03;7.00;;;11.50;99.90;;;;;;5082234;28;20048;-89
2022/01/02 06:09:59;;;;;;;11.17;6.67;;;11.50;99.90;;;;;;5099267;27;20039;-87
2022/01/02 06:12:25;;;;;;;13.10;5.73;;;11.50;99.90;;;;;;5074285;28;20054;-87
2022/01/02 06:14:50;;;;;;;15.33;6.20;;;11.50;99.90;;;;;;5106059;28;20043;-88
2022/01/02 06:17:16;;;;;;;16.70;6.03;;;11.50;99.90;;;;;;5105274;27;20039;-88
2022/01/02 06:19:42;;;;;;;10.90;5.73;;;11.50;99.90;;;;;;5057984;27;20035;-85
2022/01/02 06:22:07;;;;;;;17.10;6.53;;;11.60;99.90;;;;;;5082268;28;20047;-87
2022/01/02 06:24:33;;;;;;;12.00;5.43;;;11.60;99.90;;;;;;5077243;28;20043;-88
2022/01/02 06:26:59;;;;;;;14.73;6.10;;;11.60;99.90;;;;;;5068251;27;20047;-87
2022/01/02 06:29:25;;;;;;;11.73;5.53;;;11.70;99.90;;;;;;5076080;27;20058;-86
2022/01/02 06:31:50;;;;;;;12.80;5.90;;;11.70;99.90;;;;;;5091401;27;20137;-86
2022/01/02 06:34:16;;;;;;;16.90;5.63;;;11.70;99.90;;;;;;5101301;28;20074;-88
2022/01/02 06:36:42;;;;;;;8.77;4.53;;;11.80;99.90;;;;;;5066289;28;20047;-88
2022/01/02 06:39:08;;;;;;;12.17;4.90;;;11.80;99.90;;;;;;5070762;27;20043;-88
2022/01/02 06:41:34;;;;;;;14.30;5.17;;;11.80;99.90;;;;;;5100150;28;20387;-87
2022/01/02 06:43:59;;;;;;;10.93;4.97;;;11.90;99.90;;;;;;5069451;27;20035;-86
2022/01/02 06:46:25;;;;;;;12.63;5.33;;;11.90;99.90;;;;;;5058556;27;20487;-87
2022/01/02 06:48:51;;;;;;;10.90;4.87;;;11.90;99.90;;;;;;5120076;27;20047;-90
2022/01/02 06:51:16;;;;;;;13.50;5.07;;;11.90;99.90;;;;;;5083427;28;20040;-87
2022/01/02 06:53:42;;;;;;;10.87;5.10;;;11.90;99.90;;;;;;5094213;27;20044;-86
2022/01/02 06:56:08;;;;;;;9.70;4.67;;;11.90;99.90;;;;;;5080573;27;20047;-87
2022/01/02 06:58:38;;;;;;;10.97;4.07;;;11.90;99.90;;;;;;5070871;27;20051;-87
2022/01/02 07:01:05;;;;;;;12.47;4.53;;;11.90;99.90;;;;;;5083860;28;20043;-88
2022/01/02 07:03:31;;;;;;;11.20;4.60;;;12.00;99.90;;;;;;5083548;28;20143;-87
2022/01/02 07:05:57;;;;;;;8.77;4.27;;;12.00;99.90;;;;;;5096393;27;20043;-84
2022/01/02 07:08:22;;;;;;;15.33;4.60;;;12.00;99.90;;;;;;5080751;28;20539;-89
2022/01/02 07:10:48;;;;;;;12.27;4.73;;;12.00;99.90;;;;;;5079013;28;20102;-93
2022/01/02 07:13:14;;;;;;;10.33;4.77;;;12.00;99.90;;;;;;5079331;28;20422;-89
2022/01/02 07:15:40;;;;;;;7.87;4.30;;;12.00;99.90;;;;;;5079820;27;20059;-89
2022/01/02 07:18:05;;;;;;;14.97;4.80;;;12.00;99.90;;;;;;5084017;27;20775;-90
2022/01/02 07:20:31;;;;;;;9.83;4.70;;;11.90;99.90;;;;;;5077522;27;20031;-89
2022/01/02 07:22:57;;;;;;;8.80;4.47;;;12.00;99.90;;;;;;5082507;27;20043;-88
2022/01/02 07:25:23;;;;;;;13.70;5.47;;;11.90;99.90;;;;;;5087139;27;20043;-89
2022/01/02 07:27:49;;;;;;;7.00;4.13;;;11.90;99.90;;;;;;5102169;27;20031;-90
2022/01/02 07:30:14;;;;;;;14.27;5.20;;;11.90;99.90;;;;;;5066072;27;20039;-87
2022/01/02 07:32:41;;;;;;;12.03;5.33;;;11.90;99.90;;;;;;5096782;27;20079;-90
2022/01/02 07:35:08;;;;;;;12.10;5.03;;;11.80;99.90;;;;;;5068229;27;20038;-91
2022/01/02 07:37:34;;;;;;;10.40;5.40;;;11.80;99.90;;;;;;5120840;27;20043;-91
2022/01/02 07:40:00;;;;;;;13.17;4.43;;;11.80;99.90;;;;;;5094152;27;20066;-87
2022/01/02 07:42:26;;;;;;;10.23;4.40;;;11.80;99.90;;;;;;5103478;27;20424;-85
2022/01/02 07:44:52;;;;;;;14.63;5.07;;;11.70;99.90;;;;;;5093970;27;20149;-86
2022/01/02 07:47:18;;;;;;;14.33;5.30;;;11.80;99.90;;;;;;5090916;27;20050;-85
2022/01/02 07:49:44;;;;;;;9.87;4.70;;;11.80;99.90;;;;;;5091654;27;20036;-85
2022/01/02 07:52:09;;;;;;;11.17;5.07;;;11.70;99.90;;;;;;5101247;27;20138;-88
2022/01/02 07:54:35;;;;;;;10.13;4.57;;;11.70;99.90;;;;;;5065155;28;20456;-87
2022/01/02 07:57:01;;;;;;;11.73;5.53;;;11.70;99.90;;;;;;5064442;27;20052;-87
2022/01/02 07:59:26;;;;;;;10.33;5.03;;;11.70;99.90;;;;;;5113742;27;20540;-82
2022/01/02 08:01:52;;;;;;;10.73;4.97;;;11.70;99.90;;;;;;5081340;27;20047;-81
2022/01/02 08:04:19;;;;;;;9.87;5.17;;;11.70;99.90;;;;;;5115998;27;20046;-86
2022/01/02 08:06:45;;;;;;;11.07;5.50;;;11.70;99.90;;;;;;5095300;27;20040;-81
2022/01/02 08:09:11;;;;;;;16.83;5.87;;;11.70;99.90;;;;;;5056258;27;20051;-81
2022/01/02 08:11:36;;;;;;;9.80;5.77;;;11.70;99.90;;;;;;5098242;27;20490;-80
2022/01/02 08:14:02;;;;;;;12.50;6.00;;;11.70;99.90;;;;;;5081724;27;20050;-83
2022/01/02 08:16:28;;;;;;;9.10;5.20;;;11.70;99.90;;;;;;5080992;27;20119;-80
2022/01/02 08:18:54;;;;;;;13.97;6.13;;;11.70;99.90;;;;;;5098494;27;20107;-80
2022/01/02 08:21:20;;;;;;;8.60;5.53;;;11.70;99.90;;;;;;5099608;27;20054;-80
2022/01/02 08:23:46;;;;;;;10.67;5.73;;;11.60;99.90;;;;;;5080874;27;20043;-81
2022/01/02 08:26:11;;;;;;;13.40;6.37;;;11.60;99.90;;;;;;5067267;27;20043;-80
2022/01/02 08:28:37;;;;;;;10.20;5.17;;;11.60;99.90;;;;;;5131872;27;20040;-81
2022/01/02 08:31:03;;;;;;;8.97;5.30;;;11.60;99.90;;;;;;5080406;27;20059;-80
2022/01/02 08:33:29;;;;;;;11.53;5.20;;;11.60;99.90;;;;;;5064470;27;20047;-80
2022/01/02 08:35:55;;;;;;;10.47;5.20;;;11.60;99.90;;;;;;5066098;27;20050;-80
2022/01/02 08:38:20;;;;;;;10.57;5.60;;;11.60;99.90;;;;;;5082352;27;20051;-80
2022/01/02 08:40:46;;;;;;;9.20;5.40;;;11.60;99.90;;;;;;5060291;28;20126;-80
2022/01/02 08:43:12;;;;;;;10.33;5.27;;;11.60;99.90;;;;;;5094650;27;20085;-81
2022/01/02 08:45:38;;;;;;;13.87;6.07;;;11.60;99.90;;;;;;5075371;27;20099;-80
2022/01/02 08:48:04;;;;;;;7.83;4.83;;;11.60;99.90;;;;;;5090045;28;20044;-80
2022/01/02 08:50:30;;;;;;;9.60;4.97;;;11.60;99.90;;;;;;5100720;28;20051;-80
2022/01/02 08:52:56;;;;;;;11.83;5.50;;;11.60;99.90;;;;;;5128874;27;20077;-81
2022/01/02 08:55:22;;;;;;;8.13;4.37;;;11.60;99.90;;;;;;5068262;27;20052;-80
2022/01/02 08:57:48;;;;;;;13.70;5.20;;;11.60;99.90;;;;;;5110970;28;20039;-81
2022/01/02 09:00:13;;;;;;;9.77;5.07;;;11.60;99.90;;;;;;5105417;27;20058;-80
2022/01/02 09:02:39;;;;;;;8.60;5.27;;;11.60;99.90;;;;;;5113983;27;20057;-80
2022/01/02 09:05:06;;;;;;;12.83;5.70;;;11.60;99.90;;;;;;5093769;27;20101;-81
2022/01/02 09:07:32;;;;;;;11.13;5.40;;;11.60;99.90;;;;;;5100799;27;20574;-81
2022/01/02 09:09:58;;;;;;;11.00;4.50;;;11.50;99.90;;;;;;5068628;27;20046;-80
2022/01/02 09:12:24;;;;;;;9.00;4.77;;;11.50;99.90;;;;;;5060457;27;20501;-81
2022/01/02 09:14:50;;;;;;;12.30;4.73;;;11.50;99.90;;;;;;5090382;28;20077;-81
2022/01/02 09:17:15;;;;;;;10.67;4.80;;;11.50;99.90;;;;;;5061191;28;20039;-80
2022/01/02 09:19:41;;;;;;;13.17;5.13;;;11.50;99.90;;;;;;5071912;28;20042;-81
2022/01/02 09:22:07;;;;;;;12.80;5.20;;;11.60;99.90;;;;;;5080917;27;20035;-81
2022/01/02 09:24:32;;;;;;;11.20;5.30;;;11.60;99.90;;;;;;5078711;28;20436;-80
2022/01/02 09:26:58;;;;;;;10.43;5.20;;;11.60;99.90;;;;;;5062265;27;20068;-81
2022/01/02 09:29:24;;;;;;;11.63;5.10;;;11.60;99.90;;;;;;5077959;27;20070;-81
2022/01/02 09:31:50;;;;;;;9.17;5.23;;;11.70;99.90;;;;;;5081085;28;20060;-81
2022/01/02 09:34:16;;;;;;;9.80;5.40;;;11.70;99.90;;;;;;5098288;28;20055;-81
2022/01/02 09:36:42;;;;;;;8.77;4.83;;;11.70;99.90;;;;;;5075726;28;20044;-81
2022/01/02 09:39:08;;;;;;;10.67;5.03;;;11.80;99.90;;;;;;5077854;28;20044;-80
2022/01/02 09:41:34;;;;;;;9.77;4.90;;;11.80;99.90;;;;;;5071015;28;20806;-81
2022/01/02 09:44:00;;;;;;;11.33;5.33;;;11.80;99.90;;;;;;5065558;28;20060;-81
2022/01/02 09:46:27;;;;;;;10.10;4.87;;;11.80;99.90;;;;;;5077048;28;20044;-79
2022/01/02 09:48:54;;;;;;;9.37;4.80;;;11.80;99.90;;;;;;5073410;28;20074;-80
2022/01/02 09:51:25;;;;;;;10.07;5.20;;;11.80;99.90;;;;;;5073984;28;20080;-80
2022/01/02 09:53:52;;;;;;;10.23;4.70;;;11.90;99.90;;;;;;5056935;28;20040;-80
2022/01/02 09:56:19;;;;;;;7.60;4.83;;;11.90;99.90;;;;;;5062658;28;20051;-82
2022/01/02 09:58:45;;;;;;;11.00;5.20;;;11.90;99.90;;;;;;5084264;28;20044;-81
2022/01/02 10:01:19;;;;;;;7.87;5.37;;;11.90;99.90;;;;;;5086806;28;20105;-81
2022/01/02 10:03:47;;;;;;;11.70;5.07;;;11.90;99.90;;;;;;5088605;28;20128;-80
2022/01/02 10:06:13;;;;;;;9.93;5.13;;;11.90;99.90;;;;;;5088881;28;20052;-81
2022/01/02 10:08:39;;;;;;;10.67;4.97;;;12.00;99.90;;;;;;5068221;28;20052;-81
2022/01/02 10:11:07;;;;;;;12.57;5.20;;;12.00;99.90;;;;;;5071309;28;20046;-81
2022/01/02 10:13:54;;;;;;;8.90;5.87;;;12.00;99.90;;;;;;5110909;28;20091;-82
2022/01/02 10:16:26;;;;;;;8.27;5.53;;;12.00;99.90;;;;;;5081030;28;20112;-81
2022/01/02 10:18:54;;;;;;;11.38;6.32;;;12.00;99.90;;;;;;5080685;28;20048;-80
2022/01/02 10:21:32;;;;;;;9.57;5.63;;;12.00;99.90;;;;;;5067519;28;20047;-81
2022/01/02 10:24:16;;;;;;;14.47;6.60;;;12.00;99.90;;;;;;5088329;28;20039;-81
2022/01/02 10:27:12;;;;;;;8.33;5.90;;;11.90;99.90;;;;;;5076187;28;20069;-82
2022/01/02 10:29:56;;;;;;;10.47;5.93;;;12.00;99.90;;;;;;5072912;28;20047;-80
2022/01/02 10:32:25;;;;;;;8.50;6.00;;;12.00;99.90;;;;;;5102085;28;20084;-80
2022/01/02 10:34:51;;;;;;;8.00;6.20;;;12.00;99.90;;;;;;5088775;28;20561;-81
2022/01/02 10:37:25;;;;;;;7.63;5.93;;;12.00;99.90;;;;;;5061309;28;20093;-81
2022/01/02 10:39:51;;;;;;;12.13;7.00;;;12.00;99.90;;;;;;5080245;28;20044;-81
2022/01/02 10:42:18;;;;;;;11.47;6.30;;;12.00;99.90;;;;;;5059584;28;20090;-81
2022/01/02 10:44:44;;;;;;;10.80;5.90;;;12.00;99.90;;;;;;5078716;28;20100;-81
2022/01/02 10:47:15;;;;;;;13.27;6.97;;;12.10;99.90;;;;;;5087153;28;20052;-80
2022/01/02 10:50:06;;;;;;;11.57;7.27;;;12.10;99.90;;;;;;5075324;28;20044;-80
2022/01/02 10:52:35;;;;;;;12.27;6.37;;;12.00;99.90;;;;;;5086638;28;20942;-81
2022/01/02 10:55:05;;;;;;;9.60;5.93;;;12.10;99.90;;;;;;5090273;28;20047;-80
2022/01/02 10:57:34;;;;;;;12.87;6.90;;;12.10;99.90;;;;;;5079216;28;20048;-81
2022/01/02 11:00:01;;;;;;;9.90;6.73;;;12.20;99.90;;;;;;5063023;28;20438;-80
2022/01/02 11:02:28;;;;;;;8.10;6.53;;;12.30;99.90;;;;;;5078968;28;20058;-80
2022/01/02 11:05:03;;;;;;;10.67;6.20;;;12.30;99.90;;;;;;5084780;28;20036;-80
2022/01/02 11:07:43;;;;;;;11.40;6.27;;;12.30;99.90;;;;;;5086659;28;20896;-80
2022/01/02 11:10:11;;;;;;;9.93;6.50;;;12.30;99.90;;;;;;5096860;28;20092;-81
2022/01/02 11:12:38;;;;;;;9.57;6.30;;;12.30;99.90;;;;;;5092202;28;20047;-81
2022/01/02 11:15:06;;;;;;;12.10;6.43;;;12.30;99.90;;;;;;5070138;28;20039;-80
2022/01/02 11:17:33;;;;;;;8.73;6.37;;;12.40;99.90;;;;;;5093078;28;20040;-80
2022/01/02 11:19:59;;;;;;;10.13;6.30;;;12.30;99.90;;;;;;5075011;28;20054;-81
2022/01/02 11:22:35;;;;;;;8.43;6.07;;;12.30;99.90;;;;;;5066828;28;20105;-80
2022/01/02 11:25:09;;;;;;;9.50;6.20;;;12.30;99.90;;;;;;5091948;28;20055;-80
2022/01/02 11:27:59;;;;;;;12.57;6.67;;;12.30;99.90;;;;;;5073486;28;20059;-80
2022/01/02 11:30:32;;;;;;;14.17;6.40;;;12.30;99.90;;;;;;5075503;28;20051;-80
2022/01/02 11:33:11;;;;;;;9.37;5.90;;;12.30;99.90;;;;;;5112173;27;20059;-80
2022/01/02 11:35:39;;;;;;;11.63;6.57;;;12.30;99.90;;;;;;5101455;27;20047;-80
2022/01/02 11:38:06;;;;;;;7.43;6.27;;;12.20;99.90;;;;;;5095086;27;20051;-81
2022/01/02 11:40:57;;;;;;;10.27;6.27;;;12.20;99.90;;;;;;5107846;27;20043;-80
2022/01/02 11:43:35;;;;;;;9.80;6.20;;;12.30;99.90;;;;;;5102519;27;20114;-81
2022/01/02 11:46:21;;;;;;;16.27;7.50;;;12.20;99.90;;;;;;5099529;27;20047;-81
2022/01/02 11:49:13;;;;;;;11.13;6.23;;;12.20;99.90;;;;;;5089646;27;20071;-80
2022/01/02 11:51:50;;;;;;;11.70;6.60;;;12.20;99.90;;;;;;5114309;28;20077;-80
2022/01/02 11:54:31;;;;;;;14.07;7.20;;;12.20;99.90;;;;;;5114161;27;20064;-80
2022/01/02 11:57:00;;;;;;;13.10;6.77;;;12.20;99.90;;;;;;5098183;27;20058;-80
2022/01/02 11:59:47;;;;;;;10.67;7.23;;;12.10;99.90;;;;;;5091949;27;20095;-81
2022/01/02 12:02:13;;;;;;;9.70;6.40;;;12.10;99.90;;;;;;5097167;28;20059;-80
2022/01/02 12:07:35;;;;;;;10.73;5.77;;;12.10;99.90;;;;;;5118806;27;20070;-80
2022/01/02 12:10:16;;;;;;;10.03;6.67;;;12.10;99.90;;;;;;5099156;27;20047;-81
2022/01/02 12:13:05;;;;;;;10.47;6.43;;;12.10;99.90;;;;;;5094832;28;20052;-80
2022/01/02 12:15:34;;;;;;;13.87;6.30;;;12.10;99.90;;;;;;5089904;27;20058;-79
2022/01/02 12:18:16;;;;;;;9.83;5.73;;;12.10;99.90;;;;;;5096130;27;20096;-81
2022/01/02 12:23:35;;;;;;;10.50;5.30;;;12.10;99.90;;;;;;5105696;27;20050;-80
2022/01/02 12:26:25;;;;;;;11.10;4.90;;;12.10;99.90;;;;;;5089605;28;20103;-80
2022/01/02 12:28:57;;;;;;;10.43;4.70;;;12.10;99.90;;;;;;5100280;27;20437;-81
2022/01/02 12:31:34;;;;;;;9.75;4.65;;;12.20;99.90;;;;;;5094423;27;20055;-82
2022/01/02 12:34:09;;;;;;;10.93;3.90;;;12.20;99.90;;;;;;5088741;28;20096;-81
2022/01/02 12:36:36;;;;;;;12.03;3.77;;;12.10;99.90;;;;;;5099115;27;20590;-81
2022/01/02 12:39:11;;;;;;;11.50;3.73;;;12.10;99.90;;;;;;5086860;27;20099;-80
2022/01/02 12:41:39;;;;;;;7.97;3.47;;;12.20;99.90;;;;;;5124505;27;20559;-81
2022/01/02 12:44:15;;;;;;;9.43;3.90;;;12.20;99.90;;;;;;5100609;27;20134;-82
2022/01/02 12:46:43;;;;;;;11.73;3.30;;;12.20;99.90;;;;;;5115742;27;20518;-81
2022/01/02 12:49:12;;;;;;;10.73;3.37;;;12.20;99.90;;;;;;5099836;27;20050;-82
2022/01/02 12:51:42;;;;;;;13.57;3.90;;;12.30;99.90;;;;;;5098070;28;20043;-80
2022/01/02 12:54:13;;;;;;;9.43;3.63;;;12.30;99.90;;;;;;5092463;27;20046;-82
2022/01/02 12:56:45;;;;;;;11.90;4.18;;;12.30;99.90;;;;;;5097203;27;20051;-82